createdAt,value
2023-10-20T00:00:10.176Z,9.61
2023-10-20T00:02:59.079Z,9.63
2023-10-20T00:05:27.351Z,9.67
2023-10-20T00:07:54.784Z,9.62
2023-10-20T00:10:22.787Z,9.56
2023-10-20T00:12:50.028Z,9.62
2023-10-20T00:15:19.500Z,9.52
2023-10-20T00:17:48.746Z,9.48
2023-10-20T00:20:22.164Z,9.30
2023-10-20T00:22:49.565Z,9.38
2023-10-20T00:25:17.429Z,9.65
2023-10-20T00:27:44.938Z,9.62
2023-10-20T00:30:13.042Z,9.61
2023-10-20T00:32:41.177Z,9.51
2023-10-20T00:35:09.897Z,9.53
2023-10-20T00:37:38.778Z,9.57
2023-10-20T00:40:07.393Z,9.55
2023-10-20T00:42:34.903Z,9.59
2023-10-20T00:45:02.816Z,9.70
2023-10-20T00:47:31.251Z,9.85
2023-10-20T00:50:00.473Z,9.89
2023-10-20T00:52:29.851Z,10.09
2023-10-20T00:55:00.754Z,10.18
2023-10-20T00:57:28.328Z,10.18
2023-10-20T00:59:56.238Z,10.21
2023-10-20T01:02:23.757Z,10.12
2023-10-20T01:04:51.619Z,9.96
2023-10-20T01:07:19.008Z,9.92
2023-10-20T01:09:46.892Z,10.11
2023-10-20T01:12:15.912Z,9.96
2023-10-20T01:14:43.938Z,10.06
2023-10-20T01:17:11.489Z,10.01
2023-10-20T01:19:39.314Z,10.14
2023-10-20T01:22:06.853Z,10.22
2023-10-20T01:24:36.309Z,10.21
2023-10-20T01:27:03.868Z,10.22
2023-10-20T01:29:32.412Z,10.28
2023-10-20T01:31:59.846Z,10.19
2023-10-20T01:34:27.607Z,10.05
2023-10-20T01:36:54.986Z,9.97
2023-10-20T01:39:22.660Z,9.99
2023-10-20T01:41:54.756Z,10.06
2023-10-20T01:44:22.246Z,10.11
2023-10-20T01:46:49.885Z,10.13
2023-10-20T01:49:18.690Z,10.02
2023-10-20T01:51:46.091Z,10.10
2023-10-20T01:54:13.882Z,9.91
2023-10-20T01:56:41.269Z,9.90
2023-10-20T01:59:10.617Z,9.68
2023-10-20T02:01:37.949Z,9.74
2023-10-20T02:04:06.062Z,9.70
2023-10-20T02:06:33.481Z,9.64
2023-10-20T02:09:01.297Z,9.48
2023-10-20T02:11:28.758Z,9.47
2023-10-20T02:13:56.434Z,9.52
2023-10-20T02:16:25.192Z,9.24
2023-10-20T02:18:57.711Z,9.39
2023-10-20T02:21:25.093Z,9.38
2023-10-20T02:23:52.963Z,9.37
2023-10-20T02:26:20.367Z,9.42
2023-10-20T02:28:48.387Z,9.61
2023-10-20T02:31:17.170Z,9.61
2023-10-20T02:33:46.853Z,9.60
2023-10-20T02:36:17.142Z,9.58
2023-10-20T02:38:45.100Z,9.55
2023-10-20T02:41:12.652Z,9.60
2023-10-20T02:43:40.425Z,9.63
2023-10-20T02:46:08.389Z,9.58
2023-10-20T02:48:36.215Z,9.36
2023-10-20T02:51:11.144Z,9.26
2023-10-20T02:53:38.904Z,9.32
2023-10-20T02:56:11.560Z,9.36
2023-10-20T02:58:39.476Z,9.37
2023-10-20T03:01:07.551Z,9.38
2023-10-20T03:03:35.621Z,9.22
2023-10-20T03:06:04.515Z,9.35
2023-10-20T03:08:39.426Z,9.31
2023-10-20T03:11:07.619Z,9.31
2023-10-20T03:13:35.760Z,9.24
2023-10-20T03:16:03.230Z,9.25
2023-10-20T03:18:31.142Z,9.34
2023-10-20T03:21:00.470Z,9.44
2023-10-20T03:23:28.410Z,9.49
2023-10-20T03:25:57.599Z,9.59
2023-10-20T03:28:25.630Z,9.68
2023-10-20T03:30:53.100Z,9.87
2023-10-20T03:33:20.738Z,9.75
2023-10-20T03:35:48.157Z,9.80
2023-10-20T03:38:16.067Z,9.71
2023-10-20T03:40:43.638Z,9.74
2023-10-20T03:43:13.135Z,9.70
2023-10-20T03:45:41.103Z,9.63
2023-10-20T03:48:09.685Z,9.68
2023-10-20T03:50:37.707Z,9.57
2023-10-20T03:53:05.785Z,9.56
2023-10-20T03:55:33.300Z,9.59
2023-10-20T03:58:01.445Z,9.70
2023-10-20T04:00:30.433Z,9.76
2023-10-20T04:02:58.688Z,9.86
2023-10-20T04:05:26.170Z,9.87
2023-10-20T04:07:54.062Z,10.00
2023-10-20T04:10:21.762Z,9.87
2023-10-20T04:12:50.634Z,9.91
2023-10-20T04:15:18.117Z,9.81
2023-10-20T04:17:48.242Z,9.76
2023-10-20T04:20:15.752Z,9.80
2023-10-20T04:22:44.020Z,9.64
2023-10-20T04:25:11.433Z,9.74
2023-10-20T04:27:39.444Z,9.71
2023-10-20T04:30:08.093Z,9.57
2023-10-20T04:32:35.953Z,9.34
2023-10-20T04:35:05.390Z,9.52
2023-10-20T04:37:33.273Z,9.56
2023-10-20T04:40:00.761Z,9.62
2023-10-20T04:42:28.494Z,9.83
2023-10-20T04:44:55.910Z,9.77
2023-10-20T04:47:23.752Z,9.89
2023-10-20T04:49:51.252Z,9.93
2023-10-20T04:52:23.907Z,9.94
2023-10-20T04:54:51.196Z,9.86
2023-10-20T04:57:19.439Z,9.82
2023-10-20T04:59:46.926Z,9.87
2023-10-20T05:02:14.902Z,9.81
2023-10-20T05:04:43.904Z,9.72
2023-10-20T05:07:11.932Z,9.74
2023-10-20T05:09:40.768Z,9.62
2023-10-20T05:12:08.580Z,9.47
2023-10-20T05:14:36.361Z,9.47
2023-10-20T05:17:04.372Z,9.66
2023-10-20T05:19:31.835Z,9.58
2023-10-20T05:21:59.806Z,9.53
2023-10-20T05:24:27.186Z,9.52
2023-10-20T05:26:56.413Z,9.52
2023-10-20T05:29:25.014Z,9.51
2023-10-20T05:31:57.321Z,9.48
2023-10-20T05:34:24.875Z,9.49
2023-10-20T05:36:52.685Z,9.59
2023-10-20T05:39:23.175Z,9.58
2023-10-20T05:41:50.994Z,9.59
2023-10-20T05:44:20.026Z,9.61
2023-10-20T05:46:47.736Z,9.61
2023-10-20T05:49:15.040Z,9.54
2023-10-20T05:51:42.850Z,9.40
2023-10-20T05:54:10.192Z,9.36
2023-10-20T05:56:38.035Z,9.38
2023-10-20T05:59:05.562Z,9.43
2023-10-20T06:01:34.843Z,9.33
2023-10-20T06:04:02.491Z,9.22
2023-10-20T06:06:31.511Z,9.23
2023-10-20T06:08:59.030Z,9.25
2023-10-20T06:11:26.775Z,9.34
2023-10-20T06:13:54.286Z,9.38
2023-10-20T06:16:22.010Z,9.41
2023-10-20T06:18:50.808Z,9.24
2023-10-20T06:21:18.699Z,9.25
2023-10-20T06:23:46.248Z,9.27
2023-10-20T06:26:14.257Z,9.24
2023-10-20T06:28:41.806Z,9.25
2023-10-20T06:31:09.866Z,9.33
2023-10-20T06:33:37.377Z,9.45
2023-10-20T06:36:06.686Z,9.44
2023-10-20T06:38:34.057Z,9.49
2023-10-20T06:41:01.854Z,9.42
2023-10-20T06:43:33.263Z,9.43
2023-10-20T06:46:01.631Z,9.44
2023-10-20T06:48:30.334Z,9.40
2023-10-20T06:50:58.425Z,9.46
2023-10-20T06:53:27.621Z,9.41
2023-10-20T06:56:12.957Z,9.31
2023-10-20T06:58:42.399Z,9.28
2023-10-20T07:01:10.292Z,9.31
2023-10-20T07:03:37.855Z,9.35
2023-10-20T07:06:06.142Z,9.31
2023-10-20T07:08:35.159Z,9.34
2023-10-20T07:11:03.286Z,9.18
2023-10-20T07:13:32.135Z,9.14
2023-10-20T07:15:59.987Z,9.38
2023-10-20T07:18:27.811Z,9.51
2023-10-20T07:20:57.761Z,9.67
2023-10-20T07:23:26.646Z,9.63
2023-10-20T07:25:56.246Z,9.71
2023-10-20T07:28:23.596Z,9.82
2023-10-20T07:30:51.436Z,9.73
2023-10-20T07:33:18.947Z,9.71
2023-10-20T07:35:47.192Z,9.51
2023-10-20T07:38:14.635Z,9.49
2023-10-20T07:40:42.593Z,9.35
2023-10-20T07:43:11.787Z,9.45
2023-10-20T07:45:40.333Z,9.43
2023-10-20T07:48:08.369Z,9.42
2023-10-20T07:50:36.449Z,9.40
2023-10-20T07:53:04.078Z,9.48
2023-10-20T07:55:31.939Z,9.40
2023-10-20T07:57:59.404Z,9.20
2023-10-20T08:00:33.268Z,9.38
2023-10-20T08:03:00.732Z,9.61
2023-10-20T08:05:28.888Z,9.61
2023-10-20T08:07:56.848Z,9.75
2023-10-20T08:10:24.591Z,9.66
2023-10-20T08:12:52.057Z,9.72
2023-10-20T08:15:19.995Z,9.58
2023-10-20T08:17:49.067Z,9.63
2023-10-20T08:20:17.190Z,9.73
2023-10-20T08:22:47.255Z,9.96
2023-10-20T08:25:15.346Z,10.17
2023-10-20T08:27:46.150Z,10.17
2023-10-20T08:30:14.789Z,10.00
2023-10-20T08:32:42.362Z,9.91
2023-10-20T08:35:11.685Z,9.81
2023-10-20T08:37:39.273Z,9.62
2023-10-20T08:40:08.120Z,9.62
2023-10-20T08:42:37.871Z,9.75
2023-10-20T08:45:09.168Z,9.81
2023-10-20T08:47:37.026Z,9.63
2023-10-20T08:50:06.536Z,9.68
2023-10-20T08:52:40.136Z,9.90
2023-10-20T08:55:08.880Z,9.90
2023-10-20T08:57:36.292Z,10.01
2023-10-20T09:00:05.018Z,9.97
2023-10-20T09:02:41.280Z,9.87
2023-10-20T09:05:11.477Z,9.92
2023-10-20T09:07:40.387Z,10.05
2023-10-20T09:10:08.614Z,9.98
2023-10-20T09:12:36.282Z,10.01
2023-10-20T09:15:04.713Z,10.06
2023-10-20T09:17:32.184Z,10.00
2023-10-20T09:20:05.630Z,9.96
2023-10-20T09:22:33.152Z,9.99
2023-10-20T09:25:07.359Z,10.19
2023-10-20T09:27:34.723Z,10.16
2023-10-20T09:30:04.298Z,10.19
2023-10-20T09:32:31.794Z,10.44
2023-10-20T09:35:01.138Z,10.20
2023-10-20T09:37:31.021Z,10.11
2023-10-20T09:40:06.096Z,10.13
2023-10-20T09:42:46.412Z,10.35
2023-10-20T09:45:17.036Z,10.33
2023-10-20T09:47:48.259Z,10.48
2023-10-20T09:50:16.873Z,10.39
2023-10-20T09:52:44.388Z,10.37
2023-10-20T09:55:14.160Z,10.22
2023-10-20T09:57:44.090Z,10.33
2023-10-20T10:00:13.252Z,10.40
2023-10-20T10:02:40.958Z,10.30
2023-10-20T10:05:10.392Z,10.27
2023-10-20T10:07:37.896Z,10.34
2023-10-20T10:10:08.416Z,10.24
2023-10-20T10:12:59.502Z,10.34
2023-10-20T10:15:37.750Z,10.19
2023-10-20T10:18:10.307Z,10.13
2023-10-20T10:20:43.116Z,10.11
2023-10-20T10:23:11.647Z,10.27
2023-10-20T10:25:41.550Z,10.27
2023-10-20T10:28:14.956Z,10.46
2023-10-20T10:30:44.012Z,10.56
2023-10-20T10:33:12.836Z,10.65
2023-10-20T10:35:41.254Z,10.69
2023-10-20T10:38:19.245Z,10.51
2023-10-20T10:40:48.112Z,10.45
2023-10-20T10:43:19.072Z,10.41
2023-10-20T10:45:54.102Z,10.57
2023-10-20T10:48:25.456Z,10.62
2023-10-20T10:50:53.625Z,10.58
2023-10-20T10:53:21.240Z,10.51
2023-10-20T10:55:49.036Z,10.43
2023-10-20T10:58:18.191Z,10.56
2023-10-20T11:00:47.002Z,10.78
2023-10-20T11:03:15.484Z,10.86
2023-10-20T11:05:44.221Z,10.83
2023-10-20T11:08:15.986Z,10.71
2023-10-20T11:10:46.461Z,10.60
2023-10-20T11:13:14.529Z,10.70
2023-10-20T11:15:44.302Z,10.81
2023-10-20T11:18:12.268Z,10.86
2023-10-20T11:20:41.527Z,10.73
2023-10-20T11:23:11.183Z,10.97
2023-10-20T11:25:39.874Z,10.96
2023-10-20T11:28:08.062Z,11.07
2023-10-20T11:30:37.384Z,11.11
2023-10-20T11:33:06.754Z,11.01
2023-10-20T11:35:34.907Z,11.06
2023-10-20T11:38:02.470Z,11.13
2023-10-20T11:40:30.689Z,11.06
2023-10-20T11:43:02.312Z,11.12
2023-10-20T11:45:30.689Z,11.09
2023-10-20T11:47:58.262Z,11.07
2023-10-20T11:50:31.956Z,11.37
2023-10-20T11:53:02.660Z,11.48
2023-10-20T11:55:32.433Z,11.60
2023-10-20T11:58:01.483Z,11.51
2023-10-20T12:00:30.065Z,11.37
2023-10-20T12:02:57.780Z,11.39
2023-10-20T12:05:27.354Z,11.48
2023-10-20T12:07:54.866Z,11.37
2023-10-20T12:10:25.279Z,11.35
2023-10-20T12:12:53.860Z,11.47
2023-10-20T12:15:25.143Z,11.56
2023-10-20T12:18:16.734Z,11.65
2023-10-20T12:20:45.989Z,11.62
2023-10-20T12:23:15.958Z,11.61
2023-10-20T12:25:43.810Z,11.77
2023-10-20T12:28:14.536Z,11.84
2023-10-20T12:30:42.562Z,11.77
2023-10-20T12:33:10.298Z,11.81
2023-10-20T12:35:38.125Z,11.79
2023-10-20T12:38:10.951Z,11.77
2023-10-20T12:40:38.997Z,11.79
2023-10-20T12:43:08.380Z,12.01
2023-10-20T12:45:37.939Z,12.11
2023-10-20T12:48:06.055Z,12.17
2023-10-20T12:50:34.382Z,12.11
2023-10-20T12:53:01.881Z,11.99
2023-10-20T12:55:35.106Z,12.02
2023-10-20T12:58:03.780Z,11.87
2023-10-20T13:00:31.736Z,12.03
2023-10-20T13:02:59.254Z,11.98
2023-10-20T13:05:27.216Z,12.14
2023-10-20T13:07:54.755Z,12.42
2023-10-20T13:10:22.728Z,12.23
2023-10-20T13:12:51.615Z,12.17
2023-10-20T13:15:19.621Z,12.27
2023-10-20T13:17:47.165Z,12.30
2023-10-20T13:20:15.157Z,12.16
2023-10-20T13:22:42.637Z,12.15
2023-10-20T13:25:13.208Z,12.28
2023-10-20T13:27:42.462Z,12.41
2023-10-20T13:30:12.504Z,12.52
2023-10-20T13:32:40.018Z,12.52
2023-10-20T13:35:08.644Z,12.57
2023-10-20T13:37:36.344Z,12.53
2023-10-20T13:40:05.098Z,12.36
2023-10-20T13:42:32.613Z,12.33
2023-10-20T13:45:00.642Z,12.28
2023-10-20T13:47:29.564Z,12.32
2023-10-20T13:49:57.374Z,12.25
2023-10-20T13:52:24.919Z,12.28
2023-10-20T13:54:52.857Z,12.19
2023-10-20T13:57:20.257Z,12.27
2023-10-20T13:59:48.021Z,12.20
2023-10-20T14:02:15.463Z,12.43
2023-10-20T14:04:44.793Z,12.49
2023-10-20T14:07:12.161Z,12.59
2023-10-20T14:09:40.122Z,12.65
2023-10-20T14:12:07.783Z,12.54
2023-10-20T14:14:35.741Z,12.41
2023-10-20T14:17:05.085Z,12.45
2023-10-20T14:19:33.189Z,12.53
2023-10-20T14:22:05.901Z,12.55
2023-10-20T14:24:33.882Z,12.43
2023-10-20T14:27:01.371Z,12.34
2023-10-20T14:29:29.162Z,12.33
2023-10-20T14:31:56.731Z,12.34
2023-10-20T14:34:24.666Z,12.24
2023-10-20T14:36:52.032Z,12.27
2023-10-20T14:39:21.210Z,12.30
2023-10-20T14:41:48.718Z,12.35
2023-10-20T14:44:16.745Z,12.41
2023-10-20T14:46:44.178Z,12.42
2023-10-20T14:49:11.889Z,12.39
2023-10-20T14:51:39.449Z,12.37
2023-10-20T14:54:07.251Z,12.29
2023-10-20T14:56:36.271Z,12.33
2023-10-20T14:59:04.204Z,12.44
2023-10-20T15:01:31.844Z,12.58
2023-10-20T15:04:07.607Z,12.65
2023-10-20T15:06:45.206Z,12.56
2023-10-20T15:09:13.153Z,12.84
2023-10-20T15:11:41.995Z,13.00
2023-10-20T15:14:09.773Z,13.08
2023-10-20T15:16:37.190Z,13.07
2023-10-20T15:19:05.344Z,12.88
2023-10-20T15:21:32.804Z,12.87
2023-10-20T15:24:00.617Z,12.83
2023-10-20T15:26:28.206Z,12.83
2023-10-20T15:28:57.389Z,13.01
2023-10-20T15:31:25.032Z,13.02
2023-10-20T15:33:53.059Z,12.88
2023-10-20T15:36:20.521Z,12.78
2023-10-20T15:38:50.366Z,12.69
2023-10-20T15:41:18.059Z,12.68
2023-10-20T15:43:46.111Z,12.43
2023-10-20T15:46:25.007Z,12.31
2023-10-20T15:48:53.536Z,12.26
2023-10-20T15:51:22.161Z,12.43
2023-10-20T15:53:50.551Z,12.58
2023-10-20T15:56:23.227Z,12.59
2023-10-20T15:58:54.660Z,12.72
2023-10-20T16:01:25.927Z,12.73
2023-10-20T16:03:54.192Z,12.67
2023-10-20T16:06:27.646Z,12.64
2023-10-20T16:08:59.102Z,12.48
2023-10-20T16:11:27.272Z,12.53
2023-10-20T16:13:55.754Z,12.51
2023-10-20T16:16:27.719Z,12.43
2023-10-20T16:18:58.703Z,12.44
2023-10-20T16:21:26.547Z,12.50
2023-10-20T16:23:55.855Z,12.46
2023-10-20T16:26:23.545Z,12.46
2023-10-20T16:28:52.675Z,12.51
2023-10-20T16:31:20.222Z,12.55
2023-10-20T16:33:52.544Z,12.49
2023-10-20T16:36:23.498Z,12.48
2023-10-20T16:39:00.202Z,12.54
2023-10-20T16:41:43.312Z,12.65
2023-10-20T16:44:25.276Z,12.65
2023-10-20T16:46:52.872Z,12.66
2023-10-20T16:49:36.146Z,12.61
2023-10-20T16:52:07.495Z,12.65
2023-10-20T16:54:39.464Z,12.64
2023-10-20T16:57:18.583Z,12.85
2023-10-20T16:59:50.799Z,12.80
2023-10-20T17:02:18.219Z,12.86
2023-10-20T17:04:47.350Z,13.03
2023-10-20T17:07:14.831Z,12.94
2023-10-20T17:10:00.827Z,12.74
2023-10-20T17:12:38.334Z,12.77
2023-10-20T17:15:17.356Z,12.88
2023-10-20T17:17:46.959Z,12.88
2023-10-20T17:20:24.508Z,12.69
2023-10-20T17:22:52.712Z,12.62
2023-10-20T17:25:24.715Z,12.67
2023-10-20T17:27:56.370Z,12.70
2023-10-20T17:30:27.280Z,12.72
2023-10-20T17:32:54.802Z,12.74
2023-10-20T17:35:34.333Z,12.78
2023-10-20T17:38:02.165Z,12.67
2023-10-20T17:40:29.962Z,12.70
2023-10-20T17:42:57.627Z,12.76
2023-10-20T17:45:25.613Z,12.81
2023-10-20T17:47:53.774Z,12.77
2023-10-20T17:50:23.271Z,12.76
2023-10-20T17:52:51.006Z,12.63
2023-10-20T17:55:18.961Z,12.64
2023-10-20T17:57:46.850Z,12.75
2023-10-20T18:00:16.176Z,12.69
2023-10-20T18:02:43.845Z,12.71
2023-10-20T18:05:11.961Z,12.86
2023-10-20T18:07:42.965Z,12.95
2023-10-20T18:10:11.088Z,12.86
2023-10-20T18:12:38.702Z,12.99
2023-10-20T18:15:08.803Z,12.97
2023-10-20T18:17:36.311Z,12.98
2023-10-20T18:20:04.956Z,12.89
2023-10-20T18:22:32.398Z,13.03
2023-10-20T18:25:01.741Z,12.98
2023-10-20T18:27:29.192Z,13.06
2023-10-20T18:29:56.986Z,12.98
2023-10-20T18:32:24.460Z,13.00
2023-10-20T18:34:52.190Z,13.10
2023-10-20T18:37:19.733Z,13.15
2023-10-20T18:39:47.738Z,13.07
2023-10-20T18:42:19.477Z,13.07
2023-10-20T18:44:47.373Z,13.25
2023-10-20T18:47:15.179Z,13.27
2023-10-20T18:49:46.021Z,13.40
2023-10-20T18:52:14.220Z,13.58
2023-10-20T18:54:42.597Z,13.74
2023-10-20T18:57:11.452Z,13.85
2023-10-20T18:59:44.965Z,13.73
2023-10-20T19:02:12.471Z,13.70
2023-10-20T19:04:40.800Z,13.61
2023-10-20T19:07:08.238Z,13.51
2023-10-20T19:09:45.312Z,13.48
2023-10-20T19:12:13.002Z,13.49
2023-10-20T19:14:42.829Z,13.65
2023-10-20T19:17:10.493Z,13.66
2023-10-20T19:19:39.668Z,13.83
2023-10-20T19:22:08.417Z,13.75
2023-10-20T19:24:36.276Z,13.72
2023-10-20T19:27:04.588Z,13.79
2023-10-20T19:29:32.600Z,13.88
2023-10-20T19:32:01.651Z,13.88
2023-10-20T19:34:29.569Z,13.83
2023-10-20T19:36:57.256Z,13.83
2023-10-20T19:39:25.151Z,13.68
2023-10-20T19:41:52.650Z,13.58
2023-10-20T19:44:20.671Z,13.31
2023-10-20T19:46:52.329Z,13.39
2023-10-20T19:49:21.655Z,13.42
2023-10-20T19:51:49.077Z,13.46
2023-10-20T19:54:16.874Z,13.57
2023-10-20T19:56:44.395Z,13.46
2023-10-20T19:59:12.342Z,13.54
2023-10-20T20:01:39.872Z,13.61
2023-10-20T20:04:07.973Z,13.50
2023-10-20T20:06:37.019Z,13.55
2023-10-20T20:09:05.157Z,13.32
2023-10-20T20:11:32.768Z,13.27
2023-10-20T20:14:04.887Z,13.25
2023-10-20T20:16:32.549Z,13.29
2023-10-20T20:19:00.492Z,13.44
2023-10-20T20:21:28.012Z,13.60
2023-10-20T20:23:57.423Z,13.63
2023-10-20T20:26:24.854Z,13.78
2023-10-20T20:28:52.750Z,13.61
2023-10-20T20:31:20.237Z,13.62
2023-10-20T20:33:53.030Z,13.59
2023-10-20T20:36:20.597Z,13.53
2023-10-20T20:38:48.497Z,13.69
2023-10-20T20:41:17.390Z,13.86
2023-10-20T20:43:45.419Z,14.03
2023-10-20T20:46:12.983Z,14.06
2023-10-20T20:48:40.962Z,14.17
2023-10-20T20:51:09.973Z,14.14
2023-10-20T20:53:37.879Z,14.25
2023-10-20T20:56:05.896Z,14.32
2023-10-20T20:58:39.155Z,14.39
2023-10-20T21:01:10.247Z,14.39
2023-10-20T21:03:40.086Z,14.57
2023-10-20T21:06:10.077Z,14.61
2023-10-20T21:08:38.076Z,14.65
2023-10-20T21:11:07.240Z,14.75
2023-10-20T21:13:38.004Z,14.82
2023-10-20T21:16:06.454Z,14.86
2023-10-20T21:18:35.456Z,14.94
2023-10-20T21:21:08.494Z,14.89
2023-10-20T21:23:36.576Z,15.00
2023-10-20T21:26:04.427Z,14.79
2023-10-20T21:28:32.513Z,14.69
2023-10-20T21:31:03.872Z,14.72
2023-10-20T21:33:34.935Z,14.67
2023-10-20T21:36:05.702Z,14.60
2023-10-20T21:38:33.659Z,14.66
2023-10-20T21:41:01.225Z,14.72
2023-10-20T21:43:29.223Z,14.75
2023-10-20T21:45:57.457Z,14.80
2023-10-20T21:48:27.741Z,14.75
2023-10-20T21:50:56.176Z,14.78
2023-10-20T21:53:24.276Z,14.72
2023-10-20T21:55:59.936Z,14.63
2023-10-20T21:58:27.920Z,14.58
2023-10-20T22:00:55.478Z,14.62
2023-10-20T22:03:24.050Z,14.49
2023-10-20T22:05:53.064Z,14.57
2023-10-20T22:08:21.012Z,14.42
2023-10-20T22:10:48.494Z,14.44
2023-10-20T22:13:16.542Z,14.44
2023-10-20T22:15:43.921Z,14.40
2023-10-20T22:18:11.824Z,14.33
2023-10-20T22:20:40.034Z,14.40
2023-10-20T22:23:12.993Z,14.32
2023-10-20T22:25:40.513Z,14.27
2023-10-20T22:28:08.328Z,14.31
2023-10-20T22:30:35.690Z,14.20
2023-10-20T22:33:04.037Z,14.19
2023-10-20T22:35:31.609Z,13.94
2023-10-20T22:37:59.541Z,13.92
2023-10-20T22:40:28.589Z,13.91
2023-10-20T22:42:56.355Z,13.94
2023-10-20T22:45:23.626Z,13.81
2023-10-20T22:47:51.554Z,13.63
2023-10-20T22:50:19.441Z,13.57
2023-10-20T22:52:47.511Z,13.28
2023-10-20T22:55:15.111Z,13.06
2023-10-20T22:57:47.836Z,12.97
2023-10-20T23:00:16.770Z,12.70
2023-10-20T23:02:44.649Z,12.68
2023-10-20T23:05:12.254Z,12.69
2023-10-20T23:07:40.260Z,12.79
2023-10-20T23:10:08.130Z,12.72
2023-10-20T23:12:36.101Z,12.62
2023-10-20T23:15:05.786Z,12.55
2023-10-20T23:17:33.707Z,12.62
2023-10-20T23:20:01.158Z,12.72
2023-10-20T23:22:29.063Z,12.65
2023-10-20T23:24:56.441Z,12.62
2023-10-20T23:27:24.204Z,12.71
2023-10-20T23:29:51.655Z,12.79
2023-10-20T23:32:20.776Z,12.81
2023-10-20T23:34:48.129Z,12.69
2023-10-20T23:37:15.870Z,12.80
2023-10-20T23:39:43.308Z,12.77
2023-10-20T23:42:11.246Z,12.68
2023-10-20T23:44:38.743Z,12.70
2023-10-20T23:47:06.740Z,12.72
2023-10-20T23:49:35.752Z,12.56
2023-10-20T23:52:03.908Z,12.70
2023-10-20T23:54:31.297Z,12.89
2023-10-20T23:56:59.108Z,12.85
2023-10-20T23:59:26.605Z,12.76
